Leeds, Alabama
Current Conditions -  °F | °C
As of 5:53 AM on Wednesday 28 Jan 2015 (Local Time) from KBHM Reporting Station
Clear Clear  
Wind Chill: -3°   Ceiling: Unl
Heat Index: -3°   Visibility: 8mi
Dew Point: -5°   Wind: 3mph
Humidity: 88%   Direction: 10°N
Pressure: 30.27"   Gusts: NA
Location:  33.54°N, 86.54°W
Report Text: KBHM 281153Z 01003KT 8SM CLR M03/M05 A3027 RMK AO2 SLP253 T10331050 10022 21033 53019
Loading
Personal Weather Stations






























Interactive Weather Map New forecast layout! Learn more

10-Day Weather Forecast

Advertisements
Track Severe Weather on mobile